Time;durP1;ratioP1;P1;durP2;ratioP2;P2;SDS_P1;SDS_P2;PMS_P1;PMS_P2;Temp;Humidity;BMP_temperature;BMP_pressure;BME280_temperature;BME280_humidity;BME280_pressure;Samples;Min_cycle;Max_cycle;Signal;HPM_P1;HPM_P2
2023/09/13 00:02:43;;;;;;;0.30;0.30;;;15.20;69.60;;;;;;6226430;28;20050;-87
2023/09/13 00:05:46;;;;;;;1.45;0.40;;;15.30;68.10;;;;;;6249804;28;20115;-86
2023/09/13 00:08:47;;;;;;;2.08;0.40;;;15.30;68.10;;;;;;6239690;28;20046;-86
2023/09/13 00:11:49;;;;;;;1.83;0.40;;;15.30;68.00;;;;;;6226763;28;20399;-86
2023/09/13 00:14:51;;;;;;;2.33;0.60;;;15.40;68.90;;;;;;6250481;28;20074;-86
2023/09/13 00:17:52;;;;;;;1.52;0.65;;;15.40;69.20;;;;;;6227488;28;20111;-89
2023/09/13 00:20:54;;;;;;;0.30;0.30;;;15.40;67.50;;;;;;6231443;28;20050;-87
2023/09/13 00:23:56;;;;;;;1.35;0.40;;;15.50;65.10;;;;;;6248918;28;20060;-86
2023/09/13 00:26:57;;;;;;;0.73;0.43;;;15.50;66.20;;;;;;6265712;28;20057;-87
2023/09/13 00:29:59;;;;;;;1.27;0.40;;;15.40;66.40;;;;;;6231802;28;20046;-86
2023/09/13 00:33:01;;;;;;;1.92;0.50;;;15.50;66.30;;;;;;6247859;28;20053;-86
2023/09/13 00:36:02;;;;;;;1.27;0.50;;;15.40;66.80;;;;;;6225217;28;20332;-88
2023/09/13 00:39:05;;;;;;;3.50;0.70;;;15.40;66.90;;;;;;6244296;28;20072;-86
2023/09/13 00:42:07;;;;;;;1.98;0.60;;;;;;;;;;6223649;28;20060;-85
2023/09/13 00:45:09;;;;;;;2.00;0.70;;;15.50;61.10;;;;;;6244874;28;20049;-87
2023/09/13 00:48:11;;;;;;;2.97;0.70;;;15.50;62.90;;;;;;6223682;28;20064;-87
2023/09/13 00:51:16;;;;;;;3.58;0.75;;;15.20;82.00;;;;;;6199940;28;20414;-87
2023/09/13 00:54:18;;;;;;;3.75;0.90;;;15.50;64.20;;;;;;6246958;28;20053;-87
2023/09/13 00:57:20;;;;;;;2.03;0.70;;;;;;;;;;6224542;28;20060;-87
2023/09/13 01:00:22;;;;;;;1.67;0.70;;;16.10;81.60;;;;;;6243355;28;20120;-87
2023/09/13 01:03:23;;;;;;;3.75;1.02;;;15.50;59.50;;;;;;6221767;28;20057;-86
2023/09/13 01:06:25;;;;;;;2.42;0.77;;;15.40;80.40;;;;;;6248749;28;20130;-85
2023/09/13 01:09:27;;;;;;;2.38;0.90;;;15.50;60.00;;;;;;6217485;28;20050;-87
2023/09/13 01:12:28;;;;;;;1.73;0.60;;;14.00;79.40;;;;;;6245073;28;20059;-86
2023/09/13 01:15:30;;;;;;;1.95;0.80;;;15.40;67.10;;;;;;6220423;28;20061;-87
2023/09/13 01:18:32;;;;;;;3.83;0.85;;;;;;;;;;6241143;28;20490;-86
2023/09/13 01:21:36;;;;;;;3.65;1.50;;;15.50;80.10;;;;;;6221459;28;20057;-87
2023/09/13 01:24:39;;;;;;;3.03;0.95;;;15.40;57.30;;;;;;6231311;28;20441;-87
2023/09/13 01:27:41;;;;;;;5.25;1.00;;;15.50;56.10;;;;;;6248299;28;20409;-88
2023/09/13 01:30:43;;;;;;;2.33;1.00;;;15.40;56.50;;;;;;6223662;28;20080;-88
2023/09/13 01:33:45;;;;;;;3.65;1.10;;;15.40;56.00;;;;;;6246089;28;20184;-87
2023/09/13 01:36:47;;;;;;;2.97;0.95;;;15.40;55.00;;;;;;6223012;28;20449;-86
2023/09/13 01:39:49;;;;;;;4.40;1.38;;;15.40;53.50;;;;;;6245767;28;20053;-86
2023/09/13 01:42:51;;;;;;;2.63;0.80;;;15.30;53.30;;;;;;6223789;28;20104;-85
2023/09/13 01:45:53;;;;;;;7.25;1.38;;;15.40;52.00;;;;;;6244385;28;20159;-85
2023/09/13 01:48:55;;;;;;;5.72;1.30;;;15.30;49.80;;;;;;6223042;28;20093;-84
2023/09/13 01:51:56;;;;;;;3.22;1.00;;;15.30;49.30;;;;;;6244277;28;20187;-82
2023/09/13 01:54:58;;;;;;;6.85;1.30;;;15.20;50.10;;;;;;6221833;28;20057;-83
2023/09/13 01:58:00;;;;;;;3.40;1.20;;;15.20;50.10;;;;;;6196572;28;20540;-83
2023/09/13 02:01:02;;;;;;;3.88;1.20;;;15.20;50.40;;;;;;6247679;28;20571;-86
2023/09/13 02:04:03;;;;;;;3.63;1.20;;;15.20;50.70;;;;;;6242342;28;20054;-85
2023/09/13 02:07:05;;;;;;;4.57;1.25;;;15.10;49.70;;;;;;6219273;28;20081;-86
2023/09/13 02:10:07;;;;;;;4.20;1.10;;;15.10;50.90;;;;;;6242345;28;20050;-85
2023/09/13 02:13:09;;;;;;;3.97;1.33;;;15.10;50.30;;;;;;6218107;28;20073;-85
2023/09/13 02:16:11;;;;;;;7.93;1.40;;;15.20;50.60;;;;;;6266165;28;20433;-86
2023/09/13 02:19:13;;;;;;;5.28;1.75;;;15.10;50.00;;;;;;6227393;28;20050;-85
2023/09/13 02:22:15;;;;;;;9.40;1.30;;;15.10;50.20;;;;;;6249121;28;20060;-86
2023/09/13 02:25:17;;;;;;;7.82;1.90;;;15.00;50.00;;;;;;6220771;28;20058;-85
2023/09/13 02:28:18;;;;;;;7.68;1.48;;;15.00;51.00;;;;;;6249990;28;20197;-84
2023/09/13 02:31:20;;;;;;;4.90;1.20;;;15.00;51.20;;;;;;6228061;28;20548;-86
2023/09/13 02:34:22;;;;;;;6.65;1.80;;;15.00;51.70;;;;;;6252842;28;20409;-87
2023/09/13 02:37:24;;;;;;;6.70;1.30;;;15.10;52.90;;;;;;6230307;28;20060;-84
2023/09/13 02:40:26;;;;;;;6.07;1.20;;;15.10;52.60;;;;;;6251439;28;20140;-86
2023/09/13 02:43:28;;;;;;;8.52;1.50;;;15.10;52.30;;;;;;6225514;28;20046;-85
2023/09/13 02:46:29;;;;;;;5.78;1.40;;;15.20;52.60;;;;;;6250611;28;20064;-85
2023/09/13 02:49:31;;;;;;;6.50;1.80;;;15.30;52.50;;;;;;6224377;28;20542;-85
2023/09/13 02:52:33;;;;;;;5.60;1.38;;;15.20;52.80;;;;;;6240726;28;20050;-85
2023/09/13 02:55:35;;;;;;;6.43;1.85;;;15.20;53.00;;;;;;6223989;28;20057;-87
2023/09/13 02:58:39;;;;;;;5.15;1.92;;;15.30;52.30;;;;;;6248016;28;20130;-85
2023/09/13 03:01:40;;;;;;;8.50;1.30;;;15.30;52.10;;;;;;6226440;28;20066;-85
2023/09/13 03:04:42;;;;;;;8.50;1.40;;;15.30;51.50;;;;;;6248017;28;20061;-86
2023/09/13 03:07:44;;;;;;;8.45;1.58;;;15.20;51.80;;;;;;6226056;28;20061;-84
2023/09/13 03:10:45;;;;;;;4.65;1.30;;;15.30;51.70;;;;;;6248472;28;20874;-85
2023/09/13 03:13:47;;;;;;;9.98;1.80;;;15.30;51.50;;;;;;6224038;28;20050;-83
2023/09/13 03:16:49;;;;;;;5.40;1.58;;;15.30;51.90;;;;;;6246727;28;20405;-85
2023/09/13 03:19:51;;;;;;;5.18;1.60;;;15.30;51.80;;;;;;6223633;28;20062;-85
2023/09/13 03:22:53;;;;;;;9.23;1.92;;;15.30;53.10;;;;;;6233053;28;20050;-83
2023/09/13 03:25:54;;;;;;;6.25;1.35;;;15.30;52.50;;;;;;6223506;28;20072;-85
2023/09/13 03:28:56;;;;;;;5.57;1.67;;;15.20;53.30;;;;;;6248241;28;20092;-85
2023/09/13 03:31:58;;;;;;;3.08;1.30;;;15.10;54.00;;;;;;6223905;28;20528;-86
2023/09/13 03:35:00;;;;;;;6.00;2.10;;;15.20;55.00;;;;;;6247174;28;20089;-83
2023/09/13 03:38:01;;;;;;;7.53;1.42;;;15.20;55.80;;;;;;6228718;28;20053;-85
2023/09/13 03:41:03;;;;;;;7.60;1.70;;;15.20;55.70;;;;;;6223844;28;20054;-86
2023/09/13 03:44:05;;;;;;;7.10;1.85;;;15.20;54.20;;;;;;6248144;28;20054;-85
2023/09/13 03:47:06;;;;;;;8.40;1.52;;;15.20;54.40;;;;;;6224573;28;20121;-86
2023/09/13 03:50:08;;;;;;;6.25;1.92;;;15.20;54.20;;;;;;6250059;28;20053;-86
2023/09/13 03:53:10;;;;;;;6.00;1.60;;;15.20;55.80;;;;;;6234722;28;20049;-85
2023/09/13 03:56:11;;;;;;;4.45;1.30;;;15.10;55.70;;;;;;6226336;28;20520;-84
2023/09/13 03:59:13;;;;;;;9.07;1.98;;;15.10;81.30;;;;;;6248864;28;20049;-86
2023/09/13 04:02:14;;;;;;;5.00;1.73;;;15.10;55.80;;;;;;6249129;28;20582;-86
2023/09/13 04:05:16;;;;;;;8.02;1.40;;;15.10;55.70;;;;;;6223105;28;20052;-86
2023/09/13 04:08:18;;;;;;;7.00;1.30;;;15.10;55.70;;;;;;6235729;28;20060;-84
2023/09/13 04:11:20;;;;;;;5.07;1.40;;;;;;;;;;6247581;28;20099;-87
2023/09/13 04:14:22;;;;;;;5.20;1.48;;;;;;;;;;6221735;28;20064;-87
2023/09/13 04:17:24;;;;;;;6.97;1.27;;;;;;;;;;6244756;28;20068;-86
2023/09/13 04:20:26;;;;;;;5.22;1.27;;;;;;;;;;6220838;28;20077;-86
2023/09/13 04:23:28;;;;;;;3.95;1.20;;;15.30;54.80;;;;;;6225750;28;20409;-84
2023/09/13 04:26:31;;;;;;;4.47;1.20;;;;;;;;;;6246732;28;20424;-86
2023/09/13 04:29:32;;;;;;;3.92;1.20;;;15.20;54.70;;;;;;6221357;28;20069;-85
2023/09/13 04:32:34;;;;;;;6.97;1.40;;;15.30;81.80;;;;;;6246901;28;20064;-86
2023/09/13 04:35:36;;;;;;;5.45;1.50;;;15.10;55.80;;;;;;6222100;28;20080;-85
2023/09/13 04:38:38;;;;;;;4.93;1.50;;;15.20;55.80;;;;;;6229780;28;20486;-84
2023/09/13 04:41:39;;;;;;;8.07;1.83;;;15.20;55.50;;;;;;6246210;28;20076;-84
2023/09/13 04:44:41;;;;;;;5.57;1.27;;;15.10;55.70;;;;;;6221470;28;20050;-85
2023/09/13 04:47:42;;;;;;;5.18;1.52;;;15.10;56.50;;;;;;6245823;28;20852;-86
2023/09/13 04:50:44;;;;;;;3.38;1.33;;;15.10;56.70;;;;;;6223055;28;20056;-85
2023/09/13 04:53:46;;;;;;;7.75;1.58;;;15.10;55.90;;;;;;6228964;28;20045;-86
2023/09/13 04:56:48;;;;;;;5.10;1.70;;;15.20;80.90;;;;;;6245852;28;20045;-85
2023/09/13 04:59:50;;;;;;;5.30;1.52;;;15.00;56.90;;;;;;6221139;28;20057;-86
2023/09/13 05:02:51;;;;;;;5.07;1.85;;;15.40;66.00;;;;;;6244202;28;20049;-85
2023/09/13 05:05:53;;;;;;;4.35;1.60;;;15.10;57.70;;;;;;6219817;28;20069;-85
2023/09/13 05:08:56;;;;;;;6.53;1.50;;;15.10;57.30;;;;;;6228838;28;20391;-87
2023/09/13 05:11:57;;;;;;;6.78;1.60;;;15.10;57.50;;;;;;6246385;28;20049;-85
2023/09/13 05:14:59;;;;;;;9.07;1.88;;;15.10;58.60;;;;;;6222873;28;20049;-86
2023/09/13 05:18:00;;;;;;;5.28;1.63;;;15.10;58.40;;;;;;6245670;28;20057;-84
2023/09/13 05:21:02;;;;;;;7.15;2.05;;;15.00;58.20;;;;;;6221468;28;20088;-86
2023/09/13 05:24:04;;;;;;;4.43;1.45;;;15.00;57.90;;;;;;6233632;28;20418;-86
2023/09/13 05:27:06;;;;;;;6.05;1.50;;;;;;;;;;6245337;28;20049;-86
2023/09/13 05:30:08;;;;;;;7.88;2.33;;;16.30;90.90;;;;;;6220923;28;20053;-86
2023/09/13 05:33:10;;;;;;;6.50;2.05;;;15.00;58.30;;;;;;6244644;28;20054;-86
2023/09/13 05:36:12;;;;;;;7.05;1.60;;;;;;;;;;6221899;28;20046;-86
2023/09/13 05:39:14;;;;;;;5.03;1.70;;;15.10;54.60;;;;;;6238023;28;20840;-86
2023/09/13 05:42:16;;;;;;;9.43;1.95;;;;;;;;;;6223266;28;20053;-87
2023/09/13 05:45:17;;;;;;;11.93;2.08;;;15.20;54.70;;;;;;6246610;28;20096;-85
2023/09/13 05:48:20;;;;;;;10.63;1.85;;;15.10;55.70;;;;;;6228114;28;20057;-86
2023/09/13 05:51:21;;;;;;;4.70;1.48;;;15.10;55.70;;;;;;6251831;28;20052;-85
2023/09/13 05:54:23;;;;;;;7.25;1.80;;;15.10;55.70;;;;;;6223407;28;20054;-86
2023/09/13 05:57:25;;;;;;;12.32;2.10;;;15.10;55.70;;;;;;6250025;28;20060;-85
2023/09/13 06:00:27;;;;;;;9.98;2.13;;;15.00;55.60;;;;;;6227478;28;20050;-87
2023/09/13 06:03:30;;;;;;;6.95;1.60;;;15.10;55.70;;;;;;6250450;28;20046;-87
2023/09/13 06:06:32;;;;;;;4.32;1.52;;;15.10;55.70;;;;;;6224849;28;20050;-83
2023/09/13 06:09:34;;;;;;;5.05;1.67;;;15.10;54.80;;;;;;6248106;28;20049;-85
2023/09/13 06:12:35;;;;;;;7.57;1.88;;;15.20;54.20;;;;;;6227456;28;20556;-84
2023/09/13 06:15:37;;;;;;;7.38;1.48;;;15.20;53.10;;;;;;6250966;28;20420;-86
2023/09/13 06:18:40;;;;;;;9.75;1.83;;;;;;;;;;6225576;28;20570;-85
2023/09/13 06:21:42;;;;;;;8.23;1.60;;;15.40;50.50;;;;;;6248406;28;20424;-87
2023/09/13 06:24:43;;;;;;;7.25;2.00;;;15.40;50.30;;;;;;6240427;28;20065;-85
2023/09/13 06:27:45;;;;;;;6.18;1.75;;;15.40;48.80;;;;;;6226068;28;20062;-84
2023/09/13 06:30:47;;;;;;;5.72;1.90;;;15.30;49.50;;;;;;6249337;28;20547;-87
2023/09/13 06:34:03;;;;;;;6.03;1.70;;;15.20;50.90;;;;;;6216045;28;20072;-85
2023/09/13 06:37:08;;;;;;;7.63;1.98;;;15.60;49.20;;;;;;6248589;28;20524;-87
2023/09/13 06:40:11;;;;;;;5.40;1.70;;;15.80;45.60;;;;;;6224282;28;20058;-83
2023/09/13 06:43:15;;;;;;;4.53;1.73;;;16.10;45.60;;;;;;6201894;28;20137;-84
2023/09/13 06:46:33;;;;;;;13.00;2.17;;;16.60;42.80;;;;;;6201769;28;20057;-84
2023/09/13 06:49:37;;;;;;;6.28;1.48;;;;;;;;;;6248548;28;20408;-85
2023/09/13 06:52:40;;;;;;;9.02;1.95;;;16.50;37.20;;;;;;6226567;28;20056;-85
2023/09/13 06:56:02;;;;;;;6.47;1.60;;;16.50;39.70;;;;;;6249722;28;20238;-86
2023/09/13 06:59:09;;;;;;;8.65;1.90;;;16.80;39.00;;;;;;6201229;28;20474;-85
2023/09/13 07:02:14;;;;;;;11.15;2.25;;;17.20;36.80;;;;;;6266312;28;20057;-85
2023/09/13 07:05:33;;;;;;;16.50;2.95;;;17.80;31.20;;;;;;6205735;28;20069;-87
2023/09/13 07:08:35;;;;;;;7.60;1.90;;;18.40;33.60;;;;;;6234742;28;20049;-85
2023/09/13 07:11:38;;;;;;;6.95;1.92;;;18.20;27.80;;;;;;6225210;28;20061;-87
2023/09/13 07:14:40;;;;;;;6.68;1.95;;;18.10;30.80;;;;;;6248626;28;20057;-86
2023/09/13 07:17:42;;;;;;;12.80;1.95;;;18.20;27.40;;;;;;6227625;28;20049;-86
2023/09/13 07:20:44;;;;;;;8.43;2.15;;;18.40;22.70;;;;;;6247765;28;20068;-87
2023/09/13 07:23:46;;;;;;;8.52;2.45;;;18.50;18.80;;;;;;6234034;28;20053;-87
2023/09/13 07:26:47;;;;;;;7.20;2.22;;;19.00;20.00;;;;;;6222595;28;20759;-87
2023/09/13 07:29:49;;;;;;;6.70;1.98;;;19.30;14.20;;;;;;6246127;28;20046;-81
2023/09/13 07:32:51;;;;;;;10.90;2.00;;;18.70;12.60;;;;;;6224416;28;20061;-82
2023/09/13 07:35:53;;;;;;;8.50;2.20;;;18.60;16.80;;;;;;6247056;28;20154;-81
2023/09/13 07:38:55;;;;;;;9.27;2.35;;;18.30;13.10;;;;;;6234879;28;20057;-78
2023/09/13 07:41:58;;;;;;;12.68;2.30;;;18.10;14.70;;;;;;6223078;28;20224;-89
2023/09/13 07:45:00;;;;;;;19.27;2.58;;;17.80;14.00;;;;;;6249221;28;20077;-85
2023/09/13 07:48:02;;;;;;;16.35;2.33;;;17.50;17.40;;;;;;6227668;28;20517;-86
2023/09/13 07:51:05;;;;;;;17.60;2.75;;;17.50;19.40;;;;;;6249142;28;20056;-87
2023/09/13 07:54:07;;;;;;;8.05;1.95;;;17.50;18.10;;;;;;6220538;28;20149;-83
2023/09/13 07:57:09;;;;;;;7.68;2.17;;;17.30;18.90;;;;;;6247385;28;20152;-82
2023/09/13 08:00:11;;;;;;;8.20;2.30;;;17.30;19.90;;;;;;6225419;28;20052;-88
2023/09/13 08:03:13;;;;;;;10.30;2.53;;;17.40;17.30;;;;;;6250797;28;20050;-88
2023/09/13 08:06:14;;;;;;;12.45;2.10;;;17.40;15.60;;;;;;6234960;28;20076;-77
2023/09/13 08:09:16;;;;;;;9.65;2.33;;;17.40;18.30;;;;;;6209803;28;20452;-77
2023/09/13 08:12:18;;;;;;;8.05;2.00;;;17.40;17.60;;;;;;6242988;28;20402;-82
2023/09/13 08:15:19;;;;;;;12.23;2.58;;;17.80;18.90;;;;;;6220896;28;20069;-78
2023/09/13 08:18:34;;;;;;;7.75;2.33;;;18.10;13.60;;;;;;6196132;28;20058;-79
2023/09/13 08:21:36;;;;;;;10.40;2.45;;;18.20;11.90;;;;;;6243819;28;20057;-78
2023/09/13 08:24:38;;;;;;;7.03;1.70;;;18.40;12.40;;;;;;6234050;28;20060;-81
2023/09/13 08:27:40;;;;;;;6.90;1.77;;;18.70;12.00;;;;;;6219402;28;20057;-78
2023/09/13 08:30:42;;;;;;;7.38;1.60;;;18.60;9.40;;;;;;6243817;28;20049;-78
2023/09/13 08:33:46;;;;;;;8.23;1.80;;;18.90;9.50;;;;;;6220721;28;20061;-79
2023/09/13 08:36:49;;;;;;;8.27;1.70;;;19.00;3.50;;;;;;6243212;28;20108;-79
2023/09/13 08:39:51;;;;;;;9.05;1.92;;;19.00;7.40;;;;;;6218303;28;20060;-79
2023/09/13 08:42:53;;;;;;;6.43;1.50;;;18.90;3.30;;;;;;6244608;28;20092;-78
2023/09/13 08:45:55;;;;;;;5.93;1.50;;;18.90;1.00;;;;;;6220030;28;20046;-80
2023/09/13 08:48:57;;;;;;;10.23;1.60;;;19.10;1.10;;;;;;6241691;28;20076;-76
2023/09/13 08:51:58;;;;;;;15.65;1.73;;;19.20;1.00;;;;;;6219695;28;20054;-77
2023/09/13 08:55:00;;;;;;;6.38;1.52;;;19.60;1.00;;;;;;6242215;28;20072;-74
2023/09/13 08:58:02;;;;;;;5.53;1.88;;;19.90;1.00;;;;;;6196091;28;20155;-81
2023/09/13 09:01:04;;;;;;;7.82;1.55;;;20.00;1.00;;;;;;6243204;28;20432;-80
2023/09/13 09:04:06;;;;;;;9.32;1.67;;;19.80;1.00;;;;;;6244070;28;20491;-81
2023/09/13 09:07:08;;;;;;;9.55;1.65;;;19.70;1.00;;;;;;6197809;28;20536;-82
2023/09/13 09:10:12;;;;;;;7.38;1.70;;;19.90;1.00;;;;;;6242004;28;20056;-80
2023/09/13 09:13:14;;;;;;;34.80;3.00;;;20.90;1.00;;;;;;6218806;28;20057;-80
2023/09/13 09:16:16;;;;;;;4.78;1.40;;;21.00;1.00;;;;;;6221506;28;20054;-88
2023/09/13 09:19:18;;;;;;;10.63;1.85;;;20.90;1.00;;;;;;6242851;28;20049;-79
2023/09/13 09:22:19;;;;;;;11.10;2.00;;;21.30;1.00;;;;;;6224294;28;20790;-81
2023/09/13 09:25:21;;;;;;;5.63;1.95;;;21.40;1.00;;;;;;6240398;28;20053;-77
2023/09/13 09:28:23;;;;;;;4.28;1.40;;;21.30;1.00;;;;;;6244063;28;20057;-80
2023/09/13 09:31:25;;;;;;;4.95;1.45;;;21.00;1.00;;;;;;6217597;28;20065;-78
2023/09/13 09:34:27;;;;;;;6.15;1.60;;;21.40;1.00;;;;;;6219582;28;20088;-77
2023/09/13 09:37:28;;;;;;;8.32;1.50;;;22.30;1.00;;;;;;6197082;28;20064;-80
2023/09/13 09:40:30;;;;;;;6.85;1.63;;;23.00;1.00;;;;;;6249808;28;20053;-80
2023/09/13 09:43:32;;;;;;;9.10;1.90;;;22.70;1.00;;;;;;6200659;28;20073;-87
2023/09/13 09:46:34;;;;;;;7.60;1.73;;;22.90;1.00;;;;;;6250183;28;20053;-79
2023/09/13 09:49:35;;;;;;;7.07;1.48;;;23.00;1.00;;;;;;6234798;28;20089;-78
2023/09/13 09:52:37;;;;;;;5.43;2.17;;;23.30;1.00;;;;;;6222615;28;20595;-82
2023/09/13 09:55:39;;;;;;;6.82;1.70;;;22.80;1.00;;;;;;6219426;28;20057;-83
2023/09/13 09:58:40;;;;;;;8.60;2.05;;;22.40;1.00;;;;;;6228493;28;20080;-84
2023/09/13 10:01:42;;;;;;;8.27;2.08;;;22.00;1.00;;;;;;6214302;28;20050;-78
2023/09/13 10:04:44;;;;;;;7.82;1.55;;;22.00;1.00;;;;;;6257745;28;20061;-78
2023/09/13 10:07:46;;;;;;;7.03;1.42;;;22.20;1.00;;;;;;6222741;28;20053;-80
2023/09/13 10:10:51;;;;;;;10.32;1.90;;;22.80;1.00;;;;;;6219186;28;20050;-78
2023/09/13 10:13:52;;;;;;;4.95;1.65;;;23.20;1.00;;;;;;6243234;28;20064;-82
2023/09/13 10:16:55;;;;;;;7.32;1.75;;;23.10;1.00;;;;;;6219822;28;20104;-78
2023/09/13 10:19:56;;;;;;;5.57;1.80;;;22.70;1.00;;;;;;6242311;28;20154;-80
2023/09/13 10:22:58;;;;;;;4.53;1.50;;;22.30;1.00;;;;;;6218444;28;20054;-78
2023/09/13 10:26:00;;;;;;;5.45;1.80;;;22.40;1.00;;;;;;6218590;28;20065;-79
2023/09/13 10:29:03;;;;;;;5.07;1.45;;;22.50;1.00;;;;;;6242511;28;20046;-78
2023/09/13 10:32:05;;;;;;;9.73;2.13;;;22.60;1.00;;;;;;6220613;28;20046;-78
2023/09/13 10:35:07;;;;;;;5.05;1.38;;;23.20;1.00;;;;;;6247481;28;20061;-82
2023/09/13 10:38:08;;;;;;;7.82;1.92;;;24.20;1.00;;;;;;6226946;28;20060;-85
2023/09/13 10:41:10;;;;;;;4.88;1.60;;;24.40;1.00;;;;;;6247452;28;20130;-80
2023/09/13 10:44:12;;;;;;;9.88;1.70;;;24.40;1.00;;;;;;6199094;28;20047;-79
2023/09/13 10:47:13;;;;;;;5.18;1.63;;;24.50;1.00;;;;;;6223518;28;20057;-80
2023/09/13 10:50:15;;;;;;;7.40;1.85;;;24.30;1.00;;;;;;6206198;28;20050;-76
2023/09/13 10:53:17;;;;;;;8.15;1.60;;;23.90;1.00;;;;;;6229964;28;20054;-76
2023/09/13 10:56:19;;;;;;;4.18;1.63;;;23.50;1.00;;;;;;6222393;28;20065;-79
2023/09/13 10:59:22;;;;;;;7.72;1.80;;;23.00;1.00;;;;;;6245894;28;20822;-79
2023/09/13 11:02:23;;;;;;;8.50;1.70;;;23.00;1.00;;;;;;6222565;28;20057;-79
2023/09/13 11:05:25;;;;;;;11.02;2.20;;;23.10;1.00;;;;;;6221985;28;20054;-78
2023/09/13 11:08:27;;;;;;;6.05;1.80;;;22.60;1.00;;;;;;6215266;28;20656;-77
2023/09/13 11:11:29;;;;;;;5.10;1.70;;;22.40;1.00;;;;;;6239179;22;20053;-75
2023/09/13 11:14:33;;;;;;;4.43;1.50;;;22.30;1.00;;;;;;6245677;28;20060;-74
2023/09/13 11:17:37;;;;;;;5.35;1.60;;;22.30;1.00;;;;;;6222043;28;20081;-74
2023/09/13 11:20:40;;;;;;;5.97;1.80;;;22.10;1.00;;;;;;6245234;28;20053;-79
2023/09/13 11:23:41;;;;;;;7.43;1.90;;;22.30;1.00;;;;;;6227516;28;20054;-79
2023/09/13 11:27:02;;;;;;;6.85;1.77;;;22.40;1.00;;;;;;6217014;28;20456;-79
2023/09/13 11:30:05;;;;;;;7.28;2.03;;;22.40;1.00;;;;;;6244537;28;20107;-84
2023/09/13 11:33:07;;;;;;;5.38;1.90;;;22.50;1.00;;;;;;6219617;28;20136;-80
2023/09/13 11:36:09;;;;;;;7.28;1.77;;;22.30;1.00;;;;;;6244417;28;20522;-80
2023/09/13 11:39:11;;;;;;;5.78;1.70;;;22.20;1.00;;;;;;6212509;28;20054;-77
2023/09/13 11:42:13;;;;;;;12.73;2.10;;;22.10;1.00;;;;;;6244721;28;20053;-79
2023/09/13 11:45:33;;;;;;;14.02;2.10;;;22.10;1.00;;;;;;6216674;28;20151;-78
2023/09/13 11:48:42;;;;;;;9.75;2.00;;;22.10;1.00;;;;;;6244993;28;20076;-78
2023/09/13 11:52:00;;;;;;;7.22;1.90;;;22.30;1.00;;;;;;6215229;28;20045;-79
2023/09/13 11:55:21;;;;;;;6.55;1.67;;;22.30;1.00;;;;;;6245316;28;20508;-80
2023/09/13 11:58:26;;;;;;;9.75;1.98;;;22.20;1.00;;;;;;6210653;28;20062;-79
2023/09/13 12:01:41;;;;;;;5.78;1.98;;;22.20;1.00;;;;;;6210297;28;20054;-79
2023/09/13 12:04:44;;;;;;;7.13;1.90;;;21.90;1.00;;;;;;6259179;28;20084;-79
2023/09/13 12:07:57;;;;;;;6.80;1.92;;;21.70;1.00;;;;;;6206556;28;20080;-80
2023/09/13 12:11:01;;;;;;;4.47;1.85;;;21.80;1.00;;;;;;6198980;28;20058;-80
2023/09/13 12:14:05;;;;;;;5.65;1.90;;;21.80;1.00;;;;;;6244744;28;20603;-78
2023/09/13 12:17:16;;;;;;;12.98;2.38;;;21.80;1.00;;;;;;6195684;28;20505;-79
2023/09/13 12:20:18;;;;;;;7.63;1.83;;;22.00;1.00;;;;;;6243515;28;20060;-81
2023/09/13 12:23:19;;;;;;;8.10;1.88;;;22.10;1.00;;;;;;6227738;28;20520;-81
2023/09/13 12:26:23;;;;;;;5.30;1.80;;;22.20;1.00;;;;;;6220604;28;20058;-81
2023/09/13 12:29:25;;;;;;;8.95;1.50;;;22.10;1.00;;;;;;6244156;28;20053;-80
2023/09/13 12:32:27;;;;;;;4.55;1.40;;;22.20;1.00;;;;;;6218976;28;20493;-80
2023/09/13 12:35:28;;;;;;;7.47;1.50;;;22.40;1.00;;;;;;6243460;28;20637;-81
2023/09/13 12:38:30;;;;;;;7.35;1.60;;;22.30;1.00;;;;;;6224874;28;20045;-81
2023/09/13 12:41:32;;;;;;;5.47;1.40;;;22.30;1.00;;;;;;6218751;28;20127;-80
2023/09/13 12:44:34;;;;;;;5.07;1.20;;;22.40;1.00;;;;;;6242140;28;20191;-80
2023/09/13 12:47:37;;;;;;;5.15;1.42;;;22.30;1.00;;;;;;6219690;28;20125;-81
2023/09/13 12:50:39;;;;;;;6.15;1.27;;;22.30;1.00;;;;;;6241966;28;20046;-80
2023/09/13 12:53:43;;;;;;;6.07;1.40;;;22.30;1.00;;;;;;6232564;28;20398;-80
2023/09/13 12:56:44;;;;;;;5.60;1.98;;;22.50;1.00;;;;;;6218036;28;20072;-80
2023/09/13 12:59:46;;;;;;;8.30;1.80;;;22.60;1.00;;;;;;6243110;28;20054;-81
2023/09/13 13:02:48;;;;;;;6.78;1.80;;;22.60;1.00;;;;;;6219409;28;20553;-80
2023/09/13 13:05:50;;;;;;;6.63;1.88;;;22.40;1.00;;;;;;6241924;28;20104;-77
2023/09/13 13:08:52;;;;;;;7.20;1.80;;;22.60;1.00;;;;;;6219048;28;20061;-76
2023/09/13 13:11:53;;;;;;;5.18;1.58;;;22.70;1.00;;;;;;6212092;28;20057;-78
2023/09/13 13:14:56;;;;;;;4.28;1.42;;;22.80;1.00;;;;;;6241996;28;20060;-78
2023/09/13 13:17:58;;;;;;;8.60;1.90;;;22.70;1.00;;;;;;6219029;28;20053;-77
2023/09/13 13:21:00;;;;;;;6.72;1.40;;;22.80;1.00;;;;;;6242114;28;20493;-76
2023/09/13 13:24:09;;;;;;;5.20;1.42;;;22.70;1.00;;;;;;6192763;28;20058;-76
2023/09/13 13:27:11;;;;;;;8.50;1.95;;;22.70;1.00;;;;;;6241838;28;20049;-77
2023/09/13 13:30:13;;;;;;;5.40;1.48;;;22.80;1.00;;;;;;6218668;28;20097;-77
2023/09/13 13:33:15;;;;;;;4.60;1.50;;;22.90;1.00;;;;;;6242387;28;20347;-76
2023/09/13 13:36:17;;;;;;;10.20;1.60;;;22.90;1.00;;;;;;6219290;28;20482;-76
2023/09/13 13:39:18;;;;;;;4.55;1.38;;;22.90;1.00;;;;;;6237508;28;20065;-76
2023/09/13 13:42:20;;;;;;;9.07;1.95;;;23.10;1.00;;;;;;6218594;28;20132;-76
2023/09/13 13:45:22;;;;;;;4.50;1.60;;;23.10;1.00;;;;;;6240313;28;20416;-79
2023/09/13 13:48:24;;;;;;;4.90;1.60;;;23.50;1.00;;;;;;6217501;28;20054;-80
2023/09/13 13:51:26;;;;;;;11.05;1.92;;;23.50;1.00;;;;;;6240979;28;20049;-76
2023/09/13 13:54:27;;;;;;;8.27;1.95;;;23.40;1.00;;;;;;6216573;28;20050;-76
2023/09/13 13:57:29;;;;;;;4.53;1.48;;;23.50;1.00;;;;;;6241933;28;20413;-76
2023/09/13 14:00:31;;;;;;;14.93;1.83;;;23.30;1.00;;;;;;6218103;28;20308;-78
2023/09/13 14:03:33;;;;;;;7.78;1.65;;;23.30;1.00;;;;;;6222581;28;20053;-78
2023/09/13 14:06:35;;;;;;;4.05;1.58;;;23.40;1.00;;;;;;6243425;28;20045;-79
2023/09/13 14:09:37;;;;;;;6.78;1.55;;;23.30;1.00;;;;;;6218455;28;20061;-79
2023/09/13 14:12:38;;;;;;;25.60;2.25;;;23.20;1.00;;;;;;6226882;28;20069;-79
2023/09/13 14:15:40;;;;;;;4.43;1.38;;;22.90;1.00;;;;;;6246075;28;20053;-79
2023/09/13 14:18:42;;;;;;;9.20;1.60;;;22.50;1.00;;;;;;6221703;28;20445;-77
2023/09/13 14:21:44;;;;;;;9.93;1.60;;;22.30;1.00;;;;;;6245333;28;20123;-76
2023/09/13 14:24:45;;;;;;;9.60;1.50;;;22.40;1.00;;;;;;6219448;28;20061;-78
2023/09/13 14:27:47;;;;;;;6.90;1.45;;;22.30;1.00;;;;;;6246170;28;20124;-82
2023/09/13 14:31:11;;;;;;;26.42;2.20;;;22.10;1.00;;;;;;6216349;28;20107;-81
2023/09/13 14:34:18;;;;;;;5.30;1.40;;;;;;;;;;6196976;28;20058;-79
2023/09/13 14:37:20;;;;;;;7.38;1.63;;;21.70;1.00;;;;;;6239541;28;20052;-79
2023/09/13 14:40:22;;;;;;;5.38;1.38;;;21.70;1.00;;;;;;6222358;28;20050;-81
2023/09/13 14:43:24;;;;;;;8.82;1.40;;;21.50;1.00;;;;;;6247595;28;20064;-90
2023/09/13 14:46:25;;;;;;;8.15;1.60;;;21.60;1.00;;;;;;6225778;28;20160;-81
2023/09/13 14:49:27;;;;;;;6.75;1.52;;;21.70;1.00;;;;;;6245238;28;20093;-79
2023/09/13 14:52:36;;;;;;;3.70;1.52;;;21.70;1.00;;;;;;6222676;28;20571;-78
2023/09/13 14:55:38;;;;;;;5.47;1.70;;;21.70;1.00;;;;;;6246319;28;20073;-78
2023/09/13 14:58:39;;;;;;;7.00;1.50;;;21.60;1.00;;;;;;6233059;28;20053;-85
2023/09/13 15:01:41;;;;;;;20.70;2.05;;;21.50;1.00;;;;;;6243875;28;20549;-78
2023/09/13 15:04:50;;;;;;;6.60;1.50;;;21.40;1.00;;;;;;6222367;28;20057;-82
2023/09/13 15:07:51;;;;;;;4.30;1.30;;;21.50;1.00;;;;;;6222743;28;20240;-78
2023/09/13 15:10:53;;;;;;;8.40;2.15;;;21.60;1.00;;;;;;6219622;28;20054;-78
2023/09/13 15:13:54;;;;;;;5.10;1.27;;;21.80;1.00;;;;;;6223216;28;20515;-78
2023/09/13 15:16:56;;;;;;;15.88;2.28;;;22.00;1.00;;;;;;6244113;28;20061;-78
2023/09/13 15:19:58;;;;;;;29.45;2.13;;;22.00;1.00;;;;;;6222873;28;20050;-78
2023/09/13 15:22:59;;;;;;;19.27;2.00;;;22.20;1.00;;;;;;6232591;28;20054;-79
2023/09/13 15:26:01;;;;;;;7.60;1.33;;;22.40;1.00;;;;;;6243139;28;20456;-85
2023/09/13 15:29:03;;;;;;;16.45;2.20;;;22.50;1.00;;;;;;6243120;28;20439;-78
2023/09/13 15:32:04;;;;;;;5.93;1.58;;;22.50;1.00;;;;;;6220964;28;20534;-78
2023/09/13 15:35:11;;;;;;;4.15;1.50;;;22.50;1.00;;;;;;6245371;28;20054;-77
2023/09/13 15:38:13;;;;;;;7.57;1.50;;;22.40;1.00;;;;;;6225188;28;20062;-76
2023/09/13 15:41:17;;;;;;;5.22;1.40;;;22.30;1.00;;;;;;6219707;28;20459;-79
2023/09/13 15:44:18;;;;;;;4.45;1.65;;;22.20;1.00;;;;;;6244609;28;20061;-79
2023/09/13 15:47:20;;;;;;;6.05;1.65;;;22.10;1.00;;;;;;6220664;28;20050;-79
2023/09/13 15:50:22;;;;;;;4.50;1.48;;;22.00;1.00;;;;;;6244020;28;20503;-79
2023/09/13 15:53:23;;;;;;;5.05;1.35;;;22.10;1.00;;;;;;6229345;28;20059;-79
2023/09/13 15:56:25;;;;;;;9.13;2.15;;;22.10;1.00;;;;;;6220875;28;20102;-79
2023/09/13 15:59:26;;;;;;;3.97;1.60;;;22.00;1.00;;;;;;6244639;28;20072;-79
2023/09/13 16:02:29;;;;;;;21.13;2.10;;;21.90;1.00;;;;;;6220520;28;20157;-78